»·PEaware :: N211FU KAJO-KVCV

N211FU :: KAJO-KVCV

FLIGHT INFORMATION

Flight Status: Arrived
Operator: Privately registered:
United States
More flights under this callsign
Pilot: Christopher D. (33180)
Aircraft: Diamond DA-62
(DA62)
More flights by this aircraft type
Origin: KAJO Corona Mun
United States
Destination: KVCV Socal Logistics
United States
More flights between these airports :: More routes between these airports
Route: PDZ V442 APLES
File this flight plan on PilotEdge
Remarks:
Altitude:
(Current/Filed)
7,000ft
Speed:
(Current/Filed)
150kts
Departed: 19-Feb-21 02:01 PM
Arrived: 19-Feb-21 02:59 PM
Distance/Time
Traveled:
43nm/0:58
Distance/Time
To Go:
Arrived

Flight Plot

Page will automatically refresh every two minutes.


Map Options




Map Legend


Flown Route
Filed Route
Departure Airport
Arrival Airport
Navaid (VOR, NDB)
Fix

Horizontal Profiles

Position Reports

Time Latitude Longitude Heading Altitude Ground
Speed
19-Feb-21 13:42 33.895867 -117.597230 97 535ft 0kts
19-Feb-21 13:43 33.895867 -117.597230 97 535ft 0kts
19-Feb-21 13:44 33.895867 -117.597230 97 535ft 0kts
19-Feb-21 13:45 33.895867 -117.597230 97 535ft 0kts
19-Feb-21 13:46 33.895867 -117.597230 97 535ft 0kts
19-Feb-21 13:47 33.895867 -117.597230 97 535ft 0kts
19-Feb-21 13:48 33.896719 -117.597265 349 535ft 3kts
19-Feb-21 13:49 33.896722 -117.597265 350 535ft 0kts
19-Feb-21 13:50 33.896988 -117.597026 338 536ft 0kts
19-Feb-21 13:51 33.896988 -117.597026 338 536ft 0kts
19-Feb-21 13:52 33.896988 -117.597026 338 536ft 0kts
19-Feb-21 13:53 33.896988 -117.597026 338 536ft 0kts
19-Feb-21 13:54 33.896988 -117.597026 338 536ft 0kts
19-Feb-21 13:55 33.896988 -117.597026 338 536ft 0kts
19-Feb-21 13:56 33.896988 -117.597026 338 536ft 0kts
19-Feb-21 13:57 33.896988 -117.597026 338 536ft 0kts
19-Feb-21 13:58 33.896988 -117.597026 338 536ft 0kts
19-Feb-21 13:59 33.897286 -117.597289 328 536ft 8kts
19-Feb-21 14:00 33.897647 -117.601643 268 528ft 72kts
19-Feb-21 14:01 33.911693 -117.608113 71 2026ft 79kts
19-Feb-21 14:02 33.916529 -117.583598 77 3358ft 76kts
19-Feb-21 14:04 33.918981 -117.555561 87 4618ft 91kts
19-Feb-21 14:05 33.923964 -117.524801 43 5862ft 109kts
19-Feb-21 14:06 33.949153 -117.493773 41 5993ft 133kts
19-Feb-21 14:07 33.967676 -117.497182 219 6015ft 118kts
19-Feb-21 14:08 33.936760 -117.510391 222 5989ft 118kts
19-Feb-21 14:09 33.914638 -117.537722 260 6243ft 101kts
19-Feb-21 14:10 33.933750 -117.529442 38 7188ft 101kts
19-Feb-21 14:11 33.954262 -117.501740 72 8471ft 127kts
19-Feb-21 14:12 33.935184 -117.501273 267 8976ft 126kts
19-Feb-21 14:13 33.913779 -117.538055 261 9033ft 138kts
19-Feb-21 14:14 33.946786 -117.534334 40 9010ft 187kts
19-Feb-21 14:15 33.984310 -117.491962 24 9007ft 181kts
19-Feb-21 14:16 34.028065 -117.464185 17 8988ft 177kts
19-Feb-21 14:17 34.072956 -117.437202 17 9015ft 180kts
19-Feb-21 14:18 34.117571 -117.410342 17 9009ft 178kts
19-Feb-21 14:19 34.161867 -117.383693 18 9009ft 178kts
19-Feb-21 14:20 34.206266 -117.356925 17 9013ft 178kts
19-Feb-21 14:21 34.250958 -117.329992 18 9062ft 182kts
19-Feb-21 14:22 34.295670 -117.302923 17 9017ft 180kts
19-Feb-21 14:23 34.340982 -117.275465 17 9004ft 181kts
19-Feb-21 14:24 34.386063 -117.248142 17 8904ft 180kts
19-Feb-21 14:24 34.423384 -117.225527 18 8893ft 180kts
19-Feb-21 14:26 34.475999 -117.193578 17 8888ft 181kts
19-Feb-21 14:27 34.521725 -117.165972 17 8387ft 187kts
19-Feb-21 14:28 34.568573 -117.142489 5 8075ft 176kts
19-Feb-21 14:28 34.607190 -117.140647 344 7936ft 162kts
19-Feb-21 14:30 34.659323 -117.153437 337 7518ft 167kts
19-Feb-21 14:31 34.701488 -117.173066 322 6920ft 152kts
19-Feb-21 14:31 34.729573 -117.197018 307 6617ft 143kts
19-Feb-21 14:33 34.756074 -117.236721 295 6587ft 118kts
19-Feb-21 14:34 34.770905 -117.271306 291 6592ft 113kts
19-Feb-21 14:34 34.782583 -117.300007 282 6487ft 117kts
19-Feb-21 14:36 34.792291 -117.346074 281 5858ft 124kts
19-Feb-21 14:36 34.790248 -117.376684 199 5423ft 134kts
19-Feb-21 14:37 34.751763 -117.374918 186 4975ft 137kts
19-Feb-21 14:39 34.708714 -117.376405 191 4506ft 131kts
19-Feb-21 14:39 34.679228 -117.377867 192 4347ft 126kts
19-Feb-21 14:41 34.635411 -117.380034 186 3613ft 141kts
19-Feb-21 14:41 34.606287 -117.384178 228 4071ft 103kts
19-Feb-21 14:42 34.591824 -117.405184 288 5042ft 107kts
19-Feb-21 14:43 34.601932 -117.438490 276 5856ft 109kts
19-Feb-21 14:44 34.608686 -117.479603 278 5991ft 134kts
19-Feb-21 14:45 34.615899 -117.524253 278 5999ft 130kts
19-Feb-21 14:46 34.622229 -117.561632 284 5920ft 98kts
19-Feb-21 14:47 34.598156 -117.570676 178 5500ft 128kts
19-Feb-21 14:48 34.574566 -117.544360 105 5357ft 139kts
19-Feb-21 14:49 34.567604 -117.495918 103 4755ft 149kts
19-Feb-21 14:50 34.584550 -117.452488 51 4323ft 141kts
19-Feb-21 14:51 34.607929 -117.419926 3 4323ft 110kts
19-Feb-21 14:52 34.639893 -117.410797 359 4063ft 124kts
19-Feb-21 14:53 34.672677 -117.404081 359 4016ft 115kts
19-Feb-21 14:54 34.691729 -117.383416 146 4022ft 113kts
19-Feb-21 14:55 34.667299 -117.380741 205 3994ft 85kts
19-Feb-21 14:56 34.644242 -117.385038 191 3606ft 83kts
19-Feb-21 14:57 34.620320 -117.386753 184 2916ft 86kts
19-Feb-21 14:58 34.607705 -117.386824 178 2843ft 27kts
19-Feb-21 14:59 34.598799 -117.386686 179 2861ft 37kts
19-Feb-21 15:00 34.594899 -117.385058 98 2865ft 0kts
19-Feb-21 15:01 34.594878 -117.384894 98 2864ft 9kts
19-Feb-21 15:02 34.591129 -117.379550 134 2868ft 16kts
19-Feb-21 15:03 34.588029 -117.377370 191 2869ft 0kts
19-Feb-21 15:04 34.587865 -117.377718 241 2869ft 0kts
19-Feb-21 15:05 34.587865 -117.377718 241 2869ft 0kts

Navigation Log

Ident Type
Flight plan parsing failed, navigation log unavailable